sensor_id;sensor_type;location;lat;lon;timestamp;temperature;humidity
19755;DHT22;10036;47.812;9.274;2022-08-30T00:00:06;18.60;99.90
19755;DHT22;10036;47.812;9.274;2022-08-30T00:02:51;18.40;99.90
19755;DHT22;10036;47.812;9.274;2022-08-30T00:05:19;18.30;99.90
19755;DHT22;10036;47.812;9.274;2022-08-30T00:07:46;18.20;99.90
19755;DHT22;10036;47.812;9.274;2022-08-30T00:10:13;18.20;99.90
19755;DHT22;10036;47.812;9.274;2022-08-30T00:12:40;18.10;99.90
19755;DHT22;10036;47.812;9.274;2022-08-30T00:15:09;18.10;99.90
19755;DHT22;10036;47.812;9.274;2022-08-30T00:17:37;18.20;99.90
19755;DHT22;10036;47.812;9.274;2022-08-30T00:20:06;18.20;99.90
19755;DHT22;10036;47.812;9.274;2022-08-30T00:22:34;18.00;99.90
19755;DHT22;10036;47.812;9.274;2022-08-30T00:25:02;17.90;99.90
19755;DHT22;10036;47.812;9.274;2022-08-30T00:27:29;17.70;99.90
19755;DHT22;10036;47.812;9.274;2022-08-30T00:29:56;17.90;99.90
19755;DHT22;10036;47.812;9.274;2022-08-30T00:32:24;17.90;99.90
19755;DHT22;10036;47.812;9.274;2022-08-30T00:34:51;17.90;99.90
19755;DHT22;10036;47.812;9.274;2022-08-30T00:37:21;17.80;99.90
19755;DHT22;10036;47.812;9.274;2022-08-30T00:39:49;17.80;99.90
19755;DHT22;10036;47.812;9.274;2022-08-30T00:42:17;17.60;99.90
19755;DHT22;10036;47.812;9.274;2022-08-30T00:44:45;17.50;99.90
19755;DHT22;10036;47.812;9.274;2022-08-30T00:47:12;17.50;99.90
19755;DHT22;10036;47.812;9.274;2022-08-30T00:49:41;17.60;99.90
19755;DHT22;10036;47.812;9.274;2022-08-30T00:52:09;17.60;99.90
19755;DHT22;10036;47.812;9.274;2022-08-30T00:54:38;17.60;99.90
19755;DHT22;10036;47.812;9.274;2022-08-30T00:57:08;17.80;99.90
19755;DHT22;10036;47.812;9.274;2022-08-30T00:59:35;17.70;99.90
19755;DHT22;10036;47.812;9.274;2022-08-30T01:02:03;17.70;99.90
19755;DHT22;10036;47.812;9.274;2022-08-30T01:04:30;17.60;99.90
19755;DHT22;10036;47.812;9.274;2022-08-30T01:06:59;17.60;99.90
19755;DHT22;10036;47.812;9.274;2022-08-30T01:09:26;17.60;99.90
19755;DHT22;10036;47.812;9.274;2022-08-30T01:11:55;17.50;99.90
19755;DHT22;10036;47.812;9.274;2022-08-30T01:14:26;17.50;99.90
19755;DHT22;10036;47.812;9.274;2022-08-30T01:16:54;17.50;99.90
19755;DHT22;10036;47.812;9.274;2022-08-30T01:19:30;17.60;99.90
19755;DHT22;10036;47.812;9.274;2022-08-30T01:22:02;17.60;99.90
19755;DHT22;10036;47.812;9.274;2022-08-30T01:24:32;17.70;99.90
19755;DHT22;10036;47.812;9.274;2022-08-30T01:26:59;17.70;99.90
19755;DHT22;10036;47.812;9.274;2022-08-30T01:29:28;17.60;99.90
19755;DHT22;10036;47.812;9.274;2022-08-30T01:31:54;17.30;99.90
19755;DHT22;10036;47.812;9.274;2022-08-30T01:34:21;17.30;99.90
19755;DHT22;10036;47.812;9.274;2022-08-30T01:36:50;17.40;99.90
19755;DHT22;10036;47.812;9.274;2022-08-30T01:39:17;17.40;99.90
19755;DHT22;10036;47.812;9.274;2022-08-30T01:41:46;17.50;99.90
19755;DHT22;10036;47.812;9.274;2022-08-30T01:44:14;17.50;99.90
19755;DHT22;10036;47.812;9.274;2022-08-30T01:46:43;17.40;99.90
19755;DHT22;10036;47.812;9.274;2022-08-30T01:49:13;17.40;99.90
19755;DHT22;10036;47.812;9.274;2022-08-30T01:51:42;17.50;99.90
19755;DHT22;10036;47.812;9.274;2022-08-30T01:54:09;17.50;99.90
19755;DHT22;10036;47.812;9.274;2022-08-30T01:56:36;17.20;99.90
19755;DHT22;10036;47.812;9.274;2022-08-30T01:59:05;17.30;99.90
19755;DHT22;10036;47.812;9.274;2022-08-30T02:01:34;17.40;99.90
19755;DHT22;10036;47.812;9.274;2022-08-30T02:04:02;17.40;99.90
19755;DHT22;10036;47.812;9.274;2022-08-30T02:06:28;17.30;99.90
19755;DHT22;10036;47.812;9.274;2022-08-30T02:08:55;17.10;99.90
19755;DHT22;10036;47.812;9.274;2022-08-30T02:11:22;17.20;99.90
19755;DHT22;10036;47.812;9.274;2022-08-30T02:13:49;17.00;99.90
19755;DHT22;10036;47.812;9.274;2022-08-30T02:16:20;16.80;99.90
19755;DHT22;10036;47.812;9.274;2022-08-30T02:18:47;16.70;99.90
19755;DHT22;10036;47.812;9.274;2022-08-30T02:21:14;16.70;99.90
19755;DHT22;10036;47.812;9.274;2022-08-30T02:23:41;16.70;99.90
19755;DHT22;10036;47.812;9.274;2022-08-30T02:26:09;17.00;99.90
19755;DHT22;10036;47.812;9.274;2022-08-30T02:28:36;17.10;99.90
19755;DHT22;10036;47.812;9.274;2022-08-30T02:31:03;17.00;99.90
19755;DHT22;10036;47.812;9.274;2022-08-30T02:33:31;17.00;99.90
19755;DHT22;10036;47.812;9.274;2022-08-30T02:35:58;17.10;99.90
19755;DHT22;10036;47.812;9.274;2022-08-30T02:38:25;17.00;99.90
19755;DHT22;10036;47.812;9.274;2022-08-30T02:40:52;17.10;99.90
19755;DHT22;10036;47.812;9.274;2022-08-30T02:43:19;17.20;99.90
19755;DHT22;10036;47.812;9.274;2022-08-30T02:45:46;17.10;99.90
19755;DHT22;10036;47.812;9.274;2022-08-30T02:48:13;17.10;99.90
19755;DHT22;10036;47.812;9.274;2022-08-30T02:50:42;17.10;99.90
19755;DHT22;10036;47.812;9.274;2022-08-30T02:53:10;17.10;99.90
19755;DHT22;10036;47.812;9.274;2022-08-30T02:55:37;17.10;99.90
19755;DHT22;10036;47.812;9.274;2022-08-30T02:58:04;17.10;99.90
19755;DHT22;10036;47.812;9.274;2022-08-30T03:00:30;16.80;99.90
19755;DHT22;10036;47.812;9.274;2022-08-30T03:02:58;16.60;99.90
19755;DHT22;10036;47.812;9.274;2022-08-30T03:05:25;16.50;99.90
19755;DHT22;10036;47.812;9.274;2022-08-30T03:07:53;16.30;99.90
19755;DHT22;10036;47.812;9.274;2022-08-30T03:10:20;16.50;99.90
19755;DHT22;10036;47.812;9.274;2022-08-30T03:12:47;16.40;99.90
19755;DHT22;10036;47.812;9.274;2022-08-30T03:15:14;16.30;99.90
19755;DHT22;10036;47.812;9.274;2022-08-30T03:17:42;16.30;99.90
19755;DHT22;10036;47.812;9.274;2022-08-30T03:20:10;16.30;99.90
19755;DHT22;10036;47.812;9.274;2022-08-30T03:22:38;16.30;99.90
19755;DHT22;10036;47.812;9.274;2022-08-30T03:25:07;16.30;99.90
19755;DHT22;10036;47.812;9.274;2022-08-30T03:27:34;16.30;99.90
19755;DHT22;10036;47.812;9.274;2022-08-30T03:30:04;16.40;99.90
19755;DHT22;10036;47.812;9.274;2022-08-30T03:32:33;16.50;99.90
19755;DHT22;10036;47.812;9.274;2022-08-30T03:35:00;16.50;99.90
19755;DHT22;10036;47.812;9.274;2022-08-30T03:37:27;16.50;99.90
19755;DHT22;10036;47.812;9.274;2022-08-30T03:39:54;16.50;99.90
19755;DHT22;10036;47.812;9.274;2022-08-30T03:42:23;16.50;99.90
19755;DHT22;10036;47.812;9.274;2022-08-30T03:44:50;16.30;99.90
19755;DHT22;10036;47.812;9.274;2022-08-30T03:47:17;16.50;99.90
19755;DHT22;10036;47.812;9.274;2022-08-30T03:49:44;16.50;99.90
19755;DHT22;10036;47.812;9.274;2022-08-30T03:52:11;16.50;99.90
19755;DHT22;10036;47.812;9.274;2022-08-30T03:54:38;16.60;99.90
19755;DHT22;10036;47.812;9.274;2022-08-30T03:57:06;16.60;99.90
19755;DHT22;10036;47.812;9.274;2022-08-30T03:59:34;16.70;99.90
19755;DHT22;10036;47.812;9.274;2022-08-30T04:02:01;16.50;99.90
19755;DHT22;10036;47.812;9.274;2022-08-30T04:04:28;16.30;99.90
19755;DHT22;10036;47.812;9.274;2022-08-30T04:06:55;16.10;99.90
19755;DHT22;10036;47.812;9.274;2022-08-30T04:09:21;16.00;99.90
19755;DHT22;10036;47.812;9.274;2022-08-30T04:11:49;16.10;99.90
19755;DHT22;10036;47.812;9.274;2022-08-30T04:14:16;16.20;99.90
19755;DHT22;10036;47.812;9.274;2022-08-30T04:16:45;16.00;99.90
19755;DHT22;10036;47.812;9.274;2022-08-30T04:19:14;16.10;99.90
19755;DHT22;10036;47.812;9.274;2022-08-30T04:21:41;16.20;99.90
19755;DHT22;10036;47.812;9.274;2022-08-30T04:24:09;16.10;99.90
19755;DHT22;10036;47.812;9.274;2022-08-30T04:26:36;16.00;99.90
19755;DHT22;10036;47.812;9.274;2022-08-30T04:29:03;15.90;99.90
19755;DHT22;10036;47.812;9.274;2022-08-30T04:31:30;15.80;99.90
19755;DHT22;10036;47.812;9.274;2022-08-30T04:33:58;15.80;99.90
19755;DHT22;10036;47.812;9.274;2022-08-30T04:36:25;15.90;99.90
19755;DHT22;10036;47.812;9.274;2022-08-30T04:38:52;16.00;99.90
19755;DHT22;10036;47.812;9.274;2022-08-30T04:41:19;15.90;99.90
19755;DHT22;10036;47.812;9.274;2022-08-30T04:43:47;15.70;99.90
19755;DHT22;10036;47.812;9.274;2022-08-30T04:46:15;15.70;99.90
19755;DHT22;10036;47.812;9.274;2022-08-30T04:48:42;16.00;99.90
19755;DHT22;10036;47.812;9.274;2022-08-30T04:51:14;16.20;99.90
19755;DHT22;10036;47.812;9.274;2022-08-30T04:53:41;16.10;99.90
19755;DHT22;10036;47.812;9.274;2022-08-30T04:56:10;16.20;99.90
19755;DHT22;10036;47.812;9.274;2022-08-30T04:58:41;16.20;99.90
19755;DHT22;10036;47.812;9.274;2022-08-30T05:01:12;16.20;99.90
19755;DHT22;10036;47.812;9.274;2022-08-30T05:03:42;16.30;99.90
19755;DHT22;10036;47.812;9.274;2022-08-30T05:06:12;16.30;99.90
19755;DHT22;10036;47.812;9.274;2022-08-30T05:08:42;16.30;99.90
19755;DHT22;10036;47.812;9.274;2022-08-30T05:11:09;16.30;99.90
19755;DHT22;10036;47.812;9.274;2022-08-30T05:13:36;16.40;99.90
19755;DHT22;10036;47.812;9.274;2022-08-30T05:16:05;16.40;99.90
19755;DHT22;10036;47.812;9.274;2022-08-30T05:18:37;16.50;99.90
19755;DHT22;10036;47.812;9.274;2022-08-30T05:21:06;16.50;99.90
19755;DHT22;10036;47.812;9.274;2022-08-30T05:23:36;16.50;99.90
19755;DHT22;10036;47.812;9.274;2022-08-30T05:26:04;16.60;99.90
19755;DHT22;10036;47.812;9.274;2022-08-30T05:28:32;16.60;99.90
19755;DHT22;10036;47.812;9.274;2022-08-30T05:30:59;16.60;99.90
19755;DHT22;10036;47.812;9.274;2022-08-30T05:33:26;16.50;99.90
19755;DHT22;10036;47.812;9.274;2022-08-30T05:35:53;16.60;99.90
19755;DHT22;10036;47.812;9.274;2022-08-30T05:38:20;16.50;99.90
19755;DHT22;10036;47.812;9.274;2022-08-30T05:40:48;16.40;99.90
19755;DHT22;10036;47.812;9.274;2022-08-30T05:43:15;16.40;99.90
19755;DHT22;10036;47.812;9.274;2022-08-30T05:45:44;16.50;99.90
19755;DHT22;10036;47.812;9.274;2022-08-30T05:48:11;16.40;99.90
19755;DHT22;10036;47.812;9.274;2022-08-30T05:50:37;16.40;99.90
19755;DHT22;10036;47.812;9.274;2022-08-30T05:53:04;16.50;99.90
19755;DHT22;10036;47.812;9.274;2022-08-30T05:55:31;16.50;99.90
19755;DHT22;10036;47.812;9.274;2022-08-30T05:57:59;16.50;99.90
19755;DHT22;10036;47.812;9.274;2022-08-30T06:00:26;16.60;99.90
19755;DHT22;10036;47.812;9.274;2022-08-30T06:02:55;16.60;99.90
19755;DHT22;10036;47.812;9.274;2022-08-30T06:05:25;16.70;99.90
19755;DHT22;10036;47.812;9.274;2022-08-30T06:07:51;16.70;99.90
19755;DHT22;10036;47.812;9.274;2022-08-30T06:10:18;16.60;99.90
19755;DHT22;10036;47.812;9.274;2022-08-30T06:12:45;16.60;99.90
19755;DHT22;10036;47.812;9.274;2022-08-30T06:15:13;16.60;99.90
19755;DHT22;10036;47.812;9.274;2022-08-30T06:17:43;16.70;99.90
19755;DHT22;10036;47.812;9.274;2022-08-30T06:20:10;16.70;99.90
19755;DHT22;10036;47.812;9.274;2022-08-30T06:22:38;16.70;99.90
19755;DHT22;10036;47.812;9.274;2022-08-30T06:25:06;16.70;99.90
19755;DHT22;10036;47.812;9.274;2022-08-30T06:27:34;16.70;99.90
19755;DHT22;10036;47.812;9.274;2022-08-30T06:30:00;16.90;99.90
19755;DHT22;10036;47.812;9.274;2022-08-30T06:32:29;16.90;99.90
19755;DHT22;10036;47.812;9.274;2022-08-30T06:34:56;17.00;99.90
19755;DHT22;10036;47.812;9.274;2022-08-30T06:37:22;17.10;99.90
19755;DHT22;10036;47.812;9.274;2022-08-30T06:39:49;17.10;99.90
19755;DHT22;10036;47.812;9.274;2022-08-30T06:42:18;17.20;99.90
19755;DHT22;10036;47.812;9.274;2022-08-30T06:44:45;17.30;99.90
19755;DHT22;10036;47.812;9.274;2022-08-30T06:47:12;17.40;99.90
19755;DHT22;10036;47.812;9.274;2022-08-30T06:49:40;17.50;99.90
19755;DHT22;10036;47.812;9.274;2022-08-30T06:52:07;17.60;99.90
19755;DHT22;10036;47.812;9.274;2022-08-30T06:54:34;17.70;99.90
19755;DHT22;10036;47.812;9.274;2022-08-30T06:57:01;17.80;99.90
19755;DHT22;10036;47.812;9.274;2022-08-30T06:59:28;18.00;99.90
19755;DHT22;10036;47.812;9.274;2022-08-30T07:01:57;18.00;99.90
19755;DHT22;10036;47.812;9.274;2022-08-30T07:04:24;18.10;99.90
19755;DHT22;10036;47.812;9.274;2022-08-30T07:06:53;18.20;99.90
19755;DHT22;10036;47.812;9.274;2022-08-30T07:09:20;18.20;99.90
19755;DHT22;10036;47.812;9.274;2022-08-30T07:11:49;18.30;99.90
19755;DHT22;10036;47.812;9.274;2022-08-30T07:14:16;18.40;99.90
19755;DHT22;10036;47.812;9.274;2022-08-30T07:16:44;18.40;99.90
19755;DHT22;10036;47.812;9.274;2022-08-30T07:19:11;18.50;99.90
19755;DHT22;10036;47.812;9.274;2022-08-30T07:21:38;18.50;99.90
19755;DHT22;10036;47.812;9.274;2022-08-30T07:24:09;18.50;99.90
19755;DHT22;10036;47.812;9.274;2022-08-30T07:26:39;18.60;99.90
19755;DHT22;10036;47.812;9.274;2022-08-30T07:29:06;18.60;99.90
19755;DHT22;10036;47.812;9.274;2022-08-30T07:31:34;18.60;99.90
19755;DHT22;10036;47.812;9.274;2022-08-30T07:34:02;18.70;99.90
19755;DHT22;10036;47.812;9.274;2022-08-30T07:36:29;18.80;99.90
19755;DHT22;10036;47.812;9.274;2022-08-30T07:38:56;18.90;99.90
19755;DHT22;10036;47.812;9.274;2022-08-30T07:41:26;19.00;99.90
19755;DHT22;10036;47.812;9.274;2022-08-30T07:43:54;19.10;99.90
19755;DHT22;10036;47.812;9.274;2022-08-30T07:46:21;19.20;99.90
19755;DHT22;10036;47.812;9.274;2022-08-30T07:48:51;19.30;99.90
19755;DHT22;10036;47.812;9.274;2022-08-30T07:51:21;19.50;99.90
19755;DHT22;10036;47.812;9.274;2022-08-30T07:53:48;19.60;99.90
19755;DHT22;10036;47.812;9.274;2022-08-30T07:56:16;19.60;99.90
19755;DHT22;10036;47.812;9.274;2022-08-30T07:58:44;19.70;99.90
19755;DHT22;10036;47.812;9.274;2022-08-30T08:01:11;19.80;99.90
19755;DHT22;10036;47.812;9.274;2022-08-30T08:03:40;19.80;99.90
19755;DHT22;10036;47.812;9.274;2022-08-30T08:06:09;19.90;99.90
19755;DHT22;10036;47.812;9.274;2022-08-30T08:08:37;20.00;99.90
19755;DHT22;10036;47.812;9.274;2022-08-30T08:11:07;20.00;99.90
19755;DHT22;10036;47.812;9.274;2022-08-30T08:13:35;20.10;99.90
19755;DHT22;10036;47.812;9.274;2022-08-30T08:16:04;20.10;99.90
19755;DHT22;10036;47.812;9.274;2022-08-30T08:18:30;20.20;99.90
19755;DHT22;10036;47.812;9.274;2022-08-30T08:21:01;20.20;99.90
19755;DHT22;10036;47.812;9.274;2022-08-30T08:23:31;20.30;99.90
19755;DHT22;10036;47.812;9.274;2022-08-30T08:25:58;20.40;99.90
19755;DHT22;10036;47.812;9.274;2022-08-30T08:28:25;20.50;99.90
19755;DHT22;10036;47.812;9.274;2022-08-30T08:30:52;20.60;99.90
19755;DHT22;10036;47.812;9.274;2022-08-30T08:33:22;20.70;99.90
19755;DHT22;10036;47.812;9.274;2022-08-30T08:35:49;20.80;99.90
19755;DHT22;10036;47.812;9.274;2022-08-30T08:38:16;20.90;99.90
19755;DHT22;10036;47.812;9.274;2022-08-30T08:40:54;20.90;99.90
19755;DHT22;10036;47.812;9.274;2022-08-30T08:43:23;21.00;99.90
19755;DHT22;10036;47.812;9.274;2022-08-30T08:45:55;21.10;99.90
19755;DHT22;10036;47.812;9.274;2022-08-30T08:48:32;21.10;99.90
19755;DHT22;10036;47.812;9.274;2022-08-30T08:51:01;21.20;99.90
19755;DHT22;10036;47.812;9.274;2022-08-30T08:53:50;21.30;99.90
19755;DHT22;10036;47.812;9.274;2022-08-30T08:56:19;21.40;99.90
19755;DHT22;10036;47.812;9.274;2022-08-30T08:58:50;21.50;99.90
19755;DHT22;10036;47.812;9.274;2022-08-30T09:01:18;21.60;99.90
19755;DHT22;10036;47.812;9.274;2022-08-30T09:03:48;21.80;99.90
19755;DHT22;10036;47.812;9.274;2022-08-30T09:06:25;21.90;99.90
19755;DHT22;10036;47.812;9.274;2022-08-30T09:08:54;21.90;99.90
19755;DHT22;10036;47.812;9.274;2022-08-30T09:11:25;22.00;99.90
19755;DHT22;10036;47.812;9.274;2022-08-30T09:13:54;22.10;99.90
19755;DHT22;10036;47.812;9.274;2022-08-30T09:16:44;22.20;99.90
19755;DHT22;10036;47.812;9.274;2022-08-30T09:19:36;22.30;99.90
19755;DHT22;10036;47.812;9.274;2022-08-30T09:22:20;22.50;99.90
19755;DHT22;10036;47.812;9.274;2022-08-30T09:24:51;22.50;99.90
19755;DHT22;10036;47.812;9.274;2022-08-30T09:27:22;22.60;99.90
19755;DHT22;10036;47.812;9.274;2022-08-30T09:29:52;22.70;99.90
19755;DHT22;10036;47.812;9.274;2022-08-30T09:32:28;22.80;99.90
19755;DHT22;10036;47.812;9.274;2022-08-30T09:34:57;22.80;99.90
19755;DHT22;10036;47.812;9.274;2022-08-30T09:37:30;23.00;99.90
19755;DHT22;10036;47.812;9.274;2022-08-30T09:39:59;23.00;99.90
19755;DHT22;10036;47.812;9.274;2022-08-30T09:42:28;23.10;99.90
19755;DHT22;10036;47.812;9.274;2022-08-30T09:44:56;23.20;99.90
19755;DHT22;10036;47.812;9.274;2022-08-30T09:47:37;23.20;99.90
19755;DHT22;10036;47.812;9.274;2022-08-30T09:50:09;23.30;99.90
19755;DHT22;10036;47.812;9.274;2022-08-30T09:52:44;23.50;99.90
19755;DHT22;10036;47.812;9.274;2022-08-30T09:58:12;23.80;99.90
19755;DHT22;10036;47.812;9.274;2022-08-30T10:00:46;23.90;99.90
19755;DHT22;10036;47.812;9.274;2022-08-30T10:03:23;23.90;99.90
19755;DHT22;10036;47.812;9.274;2022-08-30T10:06:02;24.00;99.90
19755;DHT22;10036;47.812;9.274;2022-08-30T10:08:39;24.10;99.90
19755;DHT22;10036;47.812;9.274;2022-08-30T10:11:15;24.30;99.90
19755;DHT22;10036;47.812;9.274;2022-08-30T10:14:01;24.40;99.90
19755;DHT22;10036;47.812;9.274;2022-08-30T10:16:41;24.50;99.90
19755;DHT22;10036;47.812;9.274;2022-08-30T10:19:20;24.60;99.90
19755;DHT22;10036;47.812;9.274;2022-08-30T10:21:55;24.70;99.90
19755;DHT22;10036;47.812;9.274;2022-08-30T10:24:26;24.80;99.90
19755;DHT22;10036;47.812;9.274;2022-08-30T10:26:59;24.90;99.90
19755;DHT22;10036;47.812;9.274;2022-08-30T10:29:31;25.00;99.90
19755;DHT22;10036;47.812;9.274;2022-08-30T10:32:02;25.10;99.90
19755;DHT22;10036;47.812;9.274;2022-08-30T10:34:34;25.20;99.90
19755;DHT22;10036;47.812;9.274;2022-08-30T10:37:07;25.30;99.90
19755;DHT22;10036;47.812;9.274;2022-08-30T10:39:40;25.40;99.90
19755;DHT22;10036;47.812;9.274;2022-08-30T10:42:13;25.50;99.90
19755;DHT22;10036;47.812;9.274;2022-08-30T10:44:45;25.70;99.90
19755;DHT22;10036;47.812;9.274;2022-08-30T10:47:21;25.70;99.90
19755;DHT22;10036;47.812;9.274;2022-08-30T10:49:54;25.70;99.90
19755;DHT22;10036;47.812;9.274;2022-08-30T10:52:28;25.70;99.90
19755;DHT22;10036;47.812;9.274;2022-08-30T10:54:59;25.80;99.90
19755;DHT22;10036;47.812;9.274;2022-08-30T10:57:27;25.90;99.90
19755;DHT22;10036;47.812;9.274;2022-08-30T10:59:57;25.90;99.90
19755;DHT22;10036;47.812;9.274;2022-08-30T11:02:54;26.00;99.90
19755;DHT22;10036;47.812;9.274;2022-08-30T11:05:38;26.30;99.90
19755;DHT22;10036;47.812;9.274;2022-08-30T11:08:18;26.50;99.90
19755;DHT22;10036;47.812;9.274;2022-08-30T11:11:00;26.70;99.90
19755;DHT22;10036;47.812;9.274;2022-08-30T11:13:30;26.90;99.90
19755;DHT22;10036;47.812;9.274;2022-08-30T11:16:02;27.00;99.90
19755;DHT22;10036;47.812;9.274;2022-08-30T11:18:31;27.20;99.90
19755;DHT22;10036;47.812;9.274;2022-08-30T11:21:21;27.30;99.90
19755;DHT22;10036;47.812;9.274;2022-08-30T11:24:05;27.40;99.90
19755;DHT22;10036;47.812;9.274;2022-08-30T11:26:56;27.50;99.90
19755;DHT22;10036;47.812;9.274;2022-08-30T11:29:31;27.50;99.90
19755;DHT22;10036;47.812;9.274;2022-08-30T11:32:19;27.50;99.90
19755;DHT22;10036;47.812;9.274;2022-08-30T11:34:57;27.50;99.90
19755;DHT22;10036;47.812;9.274;2022-08-30T11:37:34;27.40;99.90
19755;DHT22;10036;47.812;9.274;2022-08-30T11:40:08;27.40;99.90
19755;DHT22;10036;47.812;9.274;2022-08-30T11:42:41;27.30;99.90
19755;DHT22;10036;47.812;9.274;2022-08-30T11:45:44;27.20;99.90
19755;DHT22;10036;47.812;9.274;2022-08-30T11:48:41;27.10;99.90
19755;DHT22;10036;47.812;9.274;2022-08-30T11:54:10;26.90;99.90
19755;DHT22;10036;47.812;9.274;2022-08-30T11:56:51;26.90;99.90
19755;DHT22;10036;47.812;9.274;2022-08-30T11:59:25;27.00;99.90
19755;DHT22;10036;47.812;9.274;2022-08-30T12:01:55;27.20;99.90
19755;DHT22;10036;47.812;9.274;2022-08-30T12:04:41;27.30;99.90
19755;DHT22;10036;47.812;9.274;2022-08-30T12:07:11;27.40;99.90
19755;DHT22;10036;47.812;9.274;2022-08-30T12:09:59;27.40;99.90
19755;DHT22;10036;47.812;9.274;2022-08-30T12:12:58;27.50;99.90
19755;DHT22;10036;47.812;9.274;2022-08-30T12:18:37;27.70;99.90
19755;DHT22;10036;47.812;9.274;2022-08-30T12:21:25;27.90;99.90
19755;DHT22;10036;47.812;9.274;2022-08-30T12:23:57;27.80;99.90
19755;DHT22;10036;47.812;9.274;2022-08-30T12:26:32;27.80;99.90
19755;DHT22;10036;47.812;9.274;2022-08-30T12:29:12;27.70;99.90
19755;DHT22;10036;47.812;9.274;2022-08-30T12:31:41;27.70;99.90
19755;DHT22;10036;47.812;9.274;2022-08-30T12:34:14;27.70;99.90
19755;DHT22;10036;47.812;9.274;2022-08-30T12:36:52;27.60;99.90
19755;DHT22;10036;47.812;9.274;2022-08-30T12:39:23;27.60;99.90
19755;DHT22;10036;47.812;9.274;2022-08-30T12:41:51;27.60;99.90
19755;DHT22;10036;47.812;9.274;2022-08-30T12:44:23;27.60;99.90
19755;DHT22;10036;47.812;9.274;2022-08-30T12:46:57;27.50;99.90
19755;DHT22;10036;47.812;9.274;2022-08-30T12:49:30;27.50;99.90
19755;DHT22;10036;47.812;9.274;2022-08-30T12:52:15;27.60;99.90
19755;DHT22;10036;47.812;9.274;2022-08-30T12:54:44;27.70;99.90
19755;DHT22;10036;47.812;9.274;2022-08-30T12:57:11;27.80;99.90
19755;DHT22;10036;47.812;9.274;2022-08-30T12:59:53;27.80;99.90
19755;DHT22;10036;47.812;9.274;2022-08-30T13:02:24;27.60;99.90
19755;DHT22;10036;47.812;9.274;2022-08-30T13:04:53;27.70;99.90
19755;DHT22;10036;47.812;9.274;2022-08-30T13:07:25;27.60;99.90
19755;DHT22;10036;47.812;9.274;2022-08-30T13:10:00;27.60;99.90
19755;DHT22;10036;47.812;9.274;2022-08-30T13:12:30;27.70;99.90
19755;DHT22;10036;47.812;9.274;2022-08-30T13:15:15;27.80;99.90
19755;DHT22;10036;47.812;9.274;2022-08-30T13:17:43;27.90;99.90
19755;DHT22;10036;47.812;9.274;2022-08-30T13:20:23;27.90;99.90
19755;DHT22;10036;47.812;9.274;2022-08-30T13:23:03;27.90;99.90
19755;DHT22;10036;47.812;9.274;2022-08-30T13:25:30;28.00;99.90
19755;DHT22;10036;47.812;9.274;2022-08-30T13:27:58;28.10;99.90
19755;DHT22;10036;47.812;9.274;2022-08-30T13:30:28;28.20;99.90
19755;DHT22;10036;47.812;9.274;2022-08-30T13:32:55;28.20;99.90
19755;DHT22;10036;47.812;9.274;2022-08-30T13:35:22;28.20;99.90
19755;DHT22;10036;47.812;9.274;2022-08-30T13:37:49;28.20;99.90
19755;DHT22;10036;47.812;9.274;2022-08-30T13:40:18;28.20;99.90
19755;DHT22;10036;47.812;9.274;2022-08-30T13:42:45;28.20;99.90
19755;DHT22;10036;47.812;9.274;2022-08-30T13:45:13;28.10;99.90
19755;DHT22;10036;47.812;9.274;2022-08-30T13:47:42;28.00;99.90
19755;DHT22;10036;47.812;9.274;2022-08-30T13:50:11;27.80;99.90
19755;DHT22;10036;47.812;9.274;2022-08-30T13:52:38;27.80;99.90
19755;DHT22;10036;47.812;9.274;2022-08-30T13:55:06;27.70;99.90
19755;DHT22;10036;47.812;9.274;2022-08-30T13:57:33;27.70;99.90
19755;DHT22;10036;47.812;9.274;2022-08-30T14:00:01;27.80;99.90
19755;DHT22;10036;47.812;9.274;2022-08-30T14:02:28;27.80;99.90
19755;DHT22;10036;47.812;9.274;2022-08-30T14:04:56;28.00;99.90
19755;DHT22;10036;47.812;9.274;2022-08-30T14:07:23;28.20;99.90
19755;DHT22;10036;47.812;9.274;2022-08-30T14:09:50;28.50;99.90
19755;DHT22;10036;47.812;9.274;2022-08-30T14:12:17;28.60;99.90
19755;DHT22;10036;47.812;9.274;2022-08-30T14:14:43;28.40;99.90
19755;DHT22;10036;47.812;9.274;2022-08-30T14:17:10;28.30;99.90
19755;DHT22;10036;47.812;9.274;2022-08-30T14:19:37;28.20;99.90
19755;DHT22;10036;47.812;9.274;2022-08-30T14:22:06;28.10;99.90
19755;DHT22;10036;47.812;9.274;2022-08-30T14:24:32;28.20;99.90
19755;DHT22;10036;47.812;9.274;2022-08-30T14:26:59;28.20;99.90
19755;DHT22;10036;47.812;9.274;2022-08-30T14:29:26;28.30;99.90
19755;DHT22;10036;47.812;9.274;2022-08-30T14:31:54;28.70;99.90
19755;DHT22;10036;47.812;9.274;2022-08-30T14:34:21;28.80;99.90
19755;DHT22;10036;47.812;9.274;2022-08-30T14:36:48;28.90;99.90
19755;DHT22;10036;47.812;9.274;2022-08-30T14:39:18;29.00;99.90
19755;DHT22;10036;47.812;9.274;2022-08-30T14:41:46;29.10;99.90
19755;DHT22;10036;47.812;9.274;2022-08-30T14:44:14;29.40;99.90
19755;DHT22;10036;47.812;9.274;2022-08-30T14:46:42;29.30;99.90
19755;DHT22;10036;47.812;9.274;2022-08-30T14:49:09;29.20;99.90
19755;DHT22;10036;47.812;9.274;2022-08-30T14:51:36;29.00;99.90
19755;DHT22;10036;47.812;9.274;2022-08-30T14:54:03;28.80;99.90
19755;DHT22;10036;47.812;9.274;2022-08-30T14:56:32;28.80;99.90
19755;DHT22;10036;47.812;9.274;2022-08-30T14:58:59;28.60;99.90
19755;DHT22;10036;47.812;9.274;2022-08-30T15:01:28;28.60;99.90
19755;DHT22;10036;47.812;9.274;2022-08-30T15:03:55;28.40;99.90
19755;DHT22;10036;47.812;9.274;2022-08-30T15:06:23;28.40;99.90
19755;DHT22;10036;47.812;9.274;2022-08-30T15:08:50;28.60;99.90
19755;DHT22;10036;47.812;9.274;2022-08-30T15:11:19;28.70;99.90
19755;DHT22;10036;47.812;9.274;2022-08-30T15:13:48;28.60;99.90
19755;DHT22;10036;47.812;9.274;2022-08-30T15:16:17;28.70;99.90
19755;DHT22;10036;47.812;9.274;2022-08-30T15:18:45;28.60;99.90
19755;DHT22;10036;47.812;9.274;2022-08-30T15:21:12;28.70;99.90
19755;DHT22;10036;47.812;9.274;2022-08-30T15:23:39;28.80;99.90
19755;DHT22;10036;47.812;9.274;2022-08-30T15:26:07;28.70;99.90
19755;DHT22;10036;47.812;9.274;2022-08-30T15:28:34;28.80;99.90
19755;DHT22;10036;47.812;9.274;2022-08-30T15:31:05;28.90;99.90
19755;DHT22;10036;47.812;9.274;2022-08-30T15:33:32;28.80;99.90
19755;DHT22;10036;47.812;9.274;2022-08-30T15:35:59;28.70;99.90
19755;DHT22;10036;47.812;9.274;2022-08-30T15:38:26;28.40;99.90
19755;DHT22;10036;47.812;9.274;2022-08-30T15:40:54;28.40;99.90
19755;DHT22;10036;47.812;9.274;2022-08-30T15:43:24;28.40;99.90
19755;DHT22;10036;47.812;9.274;2022-08-30T15:45:53;28.40;99.90
19755;DHT22;10036;47.812;9.274;2022-08-30T15:48:21;28.20;99.90
19755;DHT22;10036;47.812;9.274;2022-08-30T15:50:55;28.20;99.90
19755;DHT22;10036;47.812;9.274;2022-08-30T15:53:22;28.10;99.90
19755;DHT22;10036;47.812;9.274;2022-08-30T15:55:49;27.90;99.90